Time;durP1;ratioP1;P1;durP2;ratioP2;P2;SDS_P1;SDS_P2;PMS_P1;PMS_P2;Temp;Humidity;BMP_temperature;BMP_pressure;BME280_temperature;BME280_humidity;BME280_pressure;Samples;Min_cycle;Max_cycle;Signal;HPM_P1;HPM_P2
2021/03/27 00:00:09;;;;;;;3.47;1.20;;;23.80;98.80;;;;;;5072741;28;20219;-69
2021/03/27 00:02:48;;;;;;;3.40;1.00;;;23.90;98.20;;;;;;5072501;28;20201;-70
2021/03/27 00:05:45;;;;;;;4.80;1.20;;;23.90;97.90;;;;;;5063240;28;20183;-70
2021/03/27 00:08:32;;;;;;;2.90;1.10;;;24.10;98.10;;;;;;5066871;28;20214;-71
2021/03/27 00:11:17;;;;;;;3.07;1.30;;;24.30;95.60;;;;;;5073837;28;20183;-69
2021/03/27 00:14:07;;;;;;;4.43;1.10;;;24.40;94.50;;;;;;5074607;28;20580;-72
2021/03/27 00:16:37;;;;;;;2.67;0.97;;;24.40;94.20;;;;;;5066050;28;20180;-68
2021/03/27 00:19:25;;;;;;;5.90;0.87;;;24.60;93.80;;;;;;5072801;28;20199;-71
2021/03/27 00:21:57;;;;;;;5.33;1.07;;;24.70;92.30;;;;;;5071443;28;20210;-71
2021/03/27 00:24:36;;;;;;;3.40;1.40;;;24.80;91.90;;;;;;5073409;28;20191;-71
2021/03/27 00:27:15;;;;;;;3.30;1.10;;;24.80;91.90;;;;;;5073835;28;20175;-69
2021/03/27 00:29:51;;;;;;;7.70;1.10;;;24.90;91.40;;;;;;5073198;28;20233;-70
2021/03/27 00:32:40;;;;;;;5.83;0.90;;;25.00;91.30;;;;;;5071797;28;20203;-70
2021/03/27 00:35:12;;;;;;;3.50;0.83;;;25.20;89.50;;;;;;5073834;28;20179;-69
2021/03/27 00:37:42;;;;;;;2.53;1.07;;;25.20;86.10;;;;;;5070959;28;20179;-69
2021/03/27 00:40:14;;;;;;;2.30;0.87;;;25.20;87.00;;;;;;5067979;28;20245;-70
2021/03/27 00:42:46;;;;;;;4.40;0.90;;;25.20;87.20;;;;;;5065238;28;20179;-69
2021/03/27 00:45:15;;;;;;;1.33;0.90;;;25.50;86.00;;;;;;5068558;28;20638;-71
2021/03/27 00:47:56;;;;;;;4.47;1.00;;;25.50;85.00;;;;;;5069851;28;20203;-71
2021/03/27 00:50:40;;;;;;;3.30;1.00;;;25.40;84.10;;;;;;5063268;28;20637;-71
2021/03/27 00:53:22;;;;;;;3.90;1.07;;;25.50;84.70;;;;;;5062615;28;20186;-70
2021/03/27 00:56:02;;;;;;;6.37;1.23;;;25.70;80.80;;;;;;5071314;28;20179;-72
2021/03/27 00:58:59;;;;;;;4.67;0.60;;;25.70;81.50;;;;;;5066938;28;20213;-71
2021/03/27 01:01:32;;;;;;;2.40;0.80;;;25.70;82.80;;;;;;5060138;28;20597;-71
2021/03/27 01:04:02;;;;;;;2.87;0.80;;;25.70;78.20;;;;;;5071238;28;20646;-71
2021/03/27 01:06:54;;;;;;;6.30;0.80;;;25.70;76.80;;;;;;5072499;28;20191;-69
2021/03/27 01:09:41;;;;;;;3.80;0.90;;;25.70;77.50;;;;;;5065703;28;20195;-69
2021/03/27 01:12:22;;;;;;;2.53;0.80;;;25.80;78.20;;;;;;5072844;28;20179;-68
2021/03/27 01:14:57;;;;;;;2.57;0.60;;;26.00;77.10;;;;;;5072301;28;20257;-68
2021/03/27 01:17:29;;;;;;;4.30;1.10;;;26.10;76.40;;;;;;5071653;28;20236;-71
2021/03/27 01:20:01;;;;;;;4.40;1.07;;;26.20;76.30;;;;;;5072459;28;20218;-69
2021/03/27 01:22:29;;;;;;;3.50;0.60;;;26.20;75.80;;;;;;5072749;28;20175;-70
2021/03/27 01:24:59;;;;;;;2.27;0.60;;;26.10;77.10;;;;;;5071099;28;20180;-68
2021/03/27 01:27:33;;;;;;;2.60;0.80;;;26.00;74.90;;;;;;5070496;28;20207;-69
2021/03/27 01:30:13;;;;;;;5.27;0.80;;;26.10;75.30;;;;;;5070187;28;20274;-68
2021/03/27 01:33:04;;;;;;;1.33;0.70;;;26.20;75.00;;;;;;5068090;28;20240;-67
2021/03/27 01:35:46;;;;;;;5.50;0.93;;;26.40;73.90;;;;;;5067895;28;20183;-69
2021/03/27 01:38:19;;;;;;;2.17;1.20;;;26.40;75.00;;;;;;5065640;28;20211;-68
2021/03/27 01:41:14;;;;;;;3.43;0.90;;;26.50;76.80;;;;;;5065686;28;20678;-68
2021/03/27 01:43:41;;;;;;;4.47;1.13;;;26.70;74.60;;;;;;5069014;28;20182;-67
2021/03/27 01:46:17;;;;;;;3.70;1.27;;;26.80;74.70;;;;;;5072122;28;20171;-67
2021/03/27 01:48:56;;;;;;;5.33;1.03;;;27.00;74.80;;;;;;5071801;28;20174;-68
2021/03/27 01:51:49;;;;;;;3.50;0.80;;;26.90;72.60;;;;;;5059378;28;20225;-68
2021/03/27 01:54:47;;;;;;;6.90;1.00;;;27.10;72.00;;;;;;5072025;28;20186;-67
2021/03/27 01:57:36;;;;;;;8.60;1.17;;;27.30;71.70;;;;;;5040444;28;20202;-69
2021/03/27 02:00:35;;;;;;;2.20;0.87;;;27.30;70.40;;;;;;5060362;28;20294;-68
2021/03/27 02:03:12;;;;;;;5.13;0.77;;;27.40;70.20;;;;;;5072352;28;20201;-69
2021/03/27 02:05:46;;;;;;;1.70;0.70;;;27.90;69.10;;;;;;5067981;28;20175;-68
2021/03/27 02:08:44;;;;;;;7.93;1.30;;;28.00;68.40;;;;;;5064377;28;20181;-67
2021/03/27 02:11:35;;;;;;;11.33;2.37;;;28.10;67.40;;;;;;5059014;28;20568;-68
2021/03/27 02:14:09;;;;;;;7.50;1.37;;;28.30;66.80;;;;;;5072152;28;20536;-68
2021/03/27 02:16:47;;;;;;;2.43;0.60;;;28.40;66.20;;;;;;5072279;28;20186;-69
2021/03/27 02:19:32;;;;;;;5.20;0.63;;;28.40;67.00;;;;;;5072389;28;20260;-67
2021/03/27 02:22:27;;;;;;;4.40;0.70;;;27.60;66.20;;;;;;5072706;28;20699;-67
2021/03/27 02:25:22;;;;;;;3.60;0.80;;;26.80;67.80;;;;;;5066752;28;20268;-68
2021/03/27 02:28:07;;;;;;;2.53;0.90;;;26.90;69.20;;;;;;5071677;28;20301;-68
2021/03/27 02:30:53;;;;;;;2.33;0.60;;;26.80;68.30;;;;;;5071567;28;20179;-68
2021/03/27 02:33:39;;;;;;;2.07;0.67;;;26.70;69.00;;;;;;5061032;28;20175;-68
2021/03/27 02:36:27;;;;;;;3.83;0.87;;;26.50;68.80;;;;;;5072340;28;20237;-68
2021/03/27 02:39:32;;;;;;;4.20;0.93;;;26.50;68.70;;;;;;5072476;28;20199;-68
2021/03/27 02:42:33;;;;;;;2.50;0.73;;;26.40;69.10;;;;;;5041412;28;20204;-68
2021/03/27 02:45:34;;;;;;;1.93;0.70;;;26.30;69.10;;;;;;5064193;28;20197;-69
2021/03/27 02:48:11;;;;;;;2.93;0.73;;;26.20;68.30;;;;;;5072705;28;20252;-69
2021/03/27 02:51:16;;;;;;;4.17;0.80;;;26.80;68.30;;;;;;5072118;28;20756;-68
2021/03/27 02:54:13;;;;;;;4.87;1.17;;;27.50;68.10;;;;;;5052443;28;20209;-67
2021/03/27 02:56:56;;;;;;;2.83;0.57;;;28.10;66.50;;;;;;5057356;28;20197;-68
2021/03/27 02:59:41;;;;;;;4.30;0.70;;;28.50;63.60;;;;;;5072019;28;20198;-68
2021/03/27 03:02:30;;;;;;;10.07;0.93;;;28.80;62.40;;;;;;5072471;28;20175;-69
2021/03/27 03:05:07;;;;;;;2.87;0.80;;;29.00;63.10;;;;;;5074622;28;20187;-72
2021/03/27 03:08:09;;;;;;;5.13;1.00;;;28.80;62.50;;;;;;5076337;28;20221;-70
2021/03/27 03:10:57;;;;;;;1.27;0.60;;;29.20;62.60;;;;;;5055967;28;20171;-69
2021/03/27 03:13:34;;;;;;;3.07;0.60;;;29.50;60.80;;;;;;5071447;28;20614;-68
2021/03/27 03:16:39;;;;;;;2.03;0.68;;;29.60;59.00;;;;;;5076353;28;20187;-66
2021/03/27 03:19:18;;;;;;;3.08;0.60;;;29.40;58.50;;;;;;5073796;28;20215;-71
2021/03/27 03:21:51;;;;;;;2.05;0.60;;;30.30;57.10;;;;;;5076080;28;20206;-71
2021/03/27 03:24:34;;;;;;;1.50;0.47;;;30.20;57.70;;;;;;5075855;28;20179;-72
2021/03/27 03:27:37;;;;;;;2.38;0.80;;;30.40;56.70;;;;;;5075944;28;20266;-71
2021/03/27 03:30:24;;;;;;;2.90;0.85;;;30.00;57.20;;;;;;5075814;28;20224;-69
2021/03/27 03:33:00;;;;;;;4.10;0.67;;;28.90;56.30;;;;;;5075634;28;20183;-70
2021/03/27 03:35:40;;;;;;;3.07;1.23;;;28.80;56.50;;;;;;5075776;28;20183;-69
2021/03/27 03:38:10;;;;;;;1.77;0.70;;;29.40;55.70;;;;;;5070752;28;20221;-72
2021/03/27 03:41:09;;;;;;;2.50;0.50;;;29.80;55.80;;;;;;5055678;28;20208;-71
2021/03/27 03:43:54;;;;;;;4.72;0.70;;;30.80;55.20;;;;;;5064678;28;20224;-74
2021/03/27 03:46:33;;;;;;;0.70;0.40;;;30.50;53.70;;;;;;5057098;28;20188;-71
2021/03/27 03:49:41;;;;;;;4.22;0.88;;;29.60;55.60;;;;;;5064281;28;20597;-70
2021/03/27 03:52:18;;;;;;;2.45;0.80;;;29.80;55.30;;;;;;5067073;28;20233;-71
2021/03/27 03:55:10;;;;;;;1.95;0.63;;;30.30;55.50;;;;;;5059678;28;20187;-69
2021/03/27 03:58:06;;;;;;;3.60;0.47;;;30.80;54.50;;;;;;5054857;28;20183;-70
2021/03/27 04:00:54;;;;;;;2.45;0.50;;;30.60;53.60;;;;;;5055310;28;20212;-70
2021/03/27 04:03:40;;;;;;;1.33;0.63;;;31.60;54.40;;;;;;5056108;28;20605;-70
2021/03/27 04:06:20;;;;;;;1.52;0.70;;;32.30;53.30;;;;;;5065450;28;20179;-72
2021/03/27 04:09:37;;;;;;;5.35;0.85;;;32.00;53.20;;;;;;5075808;28;20175;-70
2021/03/27 04:12:13;;;;;;;1.92;0.80;;;31.70;51.90;;;;;;5033530;28;20176;-70
2021/03/27 04:14:55;;;;;;;5.10;0.63;;;30.80;52.80;;;;;;5072855;28;20551;-67
2021/03/27 04:17:25;;;;;;;2.70;0.60;;;30.20;54.30;;;;;;5074709;28;20186;-71
2021/03/27 04:20:11;;;;;;;1.80;0.50;;;30.50;53.90;;;;;;5075447;28;20211;-71
2021/03/27 04:22:44;;;;;;;3.03;0.70;;;30.90;52.70;;;;;;5074258;28;20685;-71
2021/03/27 04:26:01;;;;;;;2.70;0.57;;;30.00;54.20;;;;;;5076175;28;20579;-70
2021/03/27 04:28:41;;;;;;;1.58;0.65;;;29.50;55.60;;;;;;5051980;28;20661;-71
2021/03/27 04:31:42;;;;;;;2.45;0.70;;;29.40;55.50;;;;;;5075358;28;20175;-70
2021/03/27 04:34:25;;;;;;;1.87;0.43;;;28.80;56.30;;;;;;5075478;28;20182;-70
2021/03/27 04:37:11;;;;;;;1.47;0.70;;;28.30;58.10;;;;;;5075352;28;20214;-68
2021/03/27 04:40:10;;;;;;;2.10;1.07;;;27.90;58.30;;;;;;5075396;28;20526;-70
2021/03/27 04:42:41;;;;;;;3.83;0.80;;;28.20;59.10;;;;;;5070270;28;20198;-71
2021/03/27 04:45:24;;;;;;;4.53;1.40;;;28.90;57.00;;;;;;5074956;28;20207;-71
2021/03/27 04:48:33;;;;;;;4.97;1.02;;;29.80;56.70;;;;;;5073924;28;20256;-71
2021/03/27 04:51:18;;;;;;;1.95;1.10;;;29.60;55.70;;;;;;5074441;28;20191;-70
2021/03/27 04:54:04;;;;;;;6.07;1.47;;;29.30;56.40;;;;;;5075061;28;20504;-71
2021/03/27 04:57:10;;;;;;;3.40;1.10;;;29.30;56.90;;;;;;5074639;28;20509;-70
2021/03/27 04:59:55;;;;;;;7.95;1.55;;;29.10;65.10;;;;;;5031808;28;20240;-68
2021/03/27 05:02:33;;;;;;;4.30;1.17;;;28.20;69.30;;;;;;5053972;28;20184;-70
2021/03/27 05:05:12;;;;;;;3.92;1.17;;;28.40;69.30;;;;;;5074434;28;20239;-69
2021/03/27 05:08:12;;;;;;;5.37;1.40;;;29.00;68.80;;;;;;5074298;28;20198;-71
2021/03/27 05:10:49;;;;;;;2.70;1.20;;;28.40;70.40;;;;;;5058046;28;20551;-69
2021/03/27 05:13:22;;;;;;;5.20;1.30;;;28.10;73.30;;;;;;5074059;28;20262;-69
2021/03/27 05:16:19;;;;;;;6.00;1.47;;;28.20;74.50;;;;;;5073989;28;20210;-69
2021/03/27 05:19:11;;;;;;;4.23;2.07;;;28.10;75.20;;;;;;5053555;28;20183;-70
2021/03/27 05:21:38;;;;;;;7.33;1.37;;;28.20;74.70;;;;;;5073501;28;20187;-70
2021/03/27 05:24:26;;;;;;;5.37;1.37;;;28.10;74.40;;;;;;5073597;28;20175;-70
2021/03/27 05:27:02;;;;;;;5.67;1.53;;;28.50;74.50;;;;;;5073055;28;20521;-69
2021/03/27 05:29:49;;;;;;;4.30;1.60;;;29.10;73.20;;;;;;5073159;28;20575;-70
2021/03/27 05:32:37;;;;;;;6.43;1.45;;;29.00;72.80;;;;;;5073007;28;20253;-70
2021/03/27 05:35:45;;;;;;;5.43;1.20;;;29.40;72.30;;;;;;5063733;28;20233;-67
2021/03/27 05:38:39;;;;;;;3.17;1.25;;;28.80;73.20;;;;;;5073216;28;20245;-70
2021/03/27 05:41:29;;;;;;;2.53;1.10;;;28.60;73.00;;;;;;5067925;28;20657;-69
2021/03/27 05:44:17;;;;;;;6.28;1.30;;;29.00;71.70;;;;;;5069217;28;20250;-70
2021/03/27 05:47:21;;;;;;;5.68;1.63;;;28.90;70.40;;;;;;5072354;28;20183;-70
2021/03/27 05:50:28;;;;;;;7.43;1.40;;;28.70;71.00;;;;;;5065156;28;20176;-69
2021/03/27 05:53:01;;;;;;;7.63;1.30;;;28.50;71.30;;;;;;5046217;28;20192;-69
2021/03/27 05:56:12;;;;;;;1.95;0.90;;;28.80;71.30;;;;;;5064659;28;20287;-70
2021/03/27 05:58:46;;;;;;;5.25;1.05;;;28.90;71.20;;;;;;5060862;28;20232;-69
2021/03/27 06:01:31;;;;;;;4.65;1.40;;;28.90;68.70;;;;;;5070385;28;20209;-68
2021/03/27 06:04:35;;;;;;;2.20;1.05;;;28.80;68.50;;;;;;5072657;28;20727;-70
2021/03/27 06:07:11;;;;;;;5.78;1.10;;;28.90;68.60;;;;;;5063580;28;20191;-69
2021/03/27 06:10:00;;;;;;;6.43;1.47;;;29.00;68.70;;;;;;5072279;28;20171;-67
2021/03/27 06:12:33;;;;;;;3.30;1.05;;;29.20;68.80;;;;;;5072394;28;20183;-68
2021/03/27 06:15:32;;;;;;;6.30;1.58;;;29.40;68.40;;;;;;5072105;28;20534;-67
2021/03/27 06:18:20;;;;;;;3.03;1.15;;;29.10;68.60;;;;;;5070594;28;20213;-68
2021/03/27 06:20:55;;;;;;;3.05;0.90;;;29.00;68.20;;;;;;5054244;28;20218;-68
2021/03/27 06:23:40;;;;;;;5.72;1.27;;;28.50;69.40;;;;;;5058734;28;20185;-68
2021/03/27 06:26:32;;;;;;;5.13;3.25;;;28.60;69.70;;;;;;5072664;28;20185;-68
2021/03/27 06:29:43;;;;;;;10.68;1.35;;;28.60;69.00;;;;;;5072062;28;20771;-69
2021/03/27 06:32:30;;;;;;;6.70;1.13;;;28.80;68.10;;;;;;5072164;28;20599;-70
2021/03/27 06:35:07;;;;;;;9.27;1.17;;;28.80;67.80;;;;;;5071762;28;20255;-68
2021/03/27 06:37:55;;;;;;;7.17;1.20;;;28.30;67.60;;;;;;5068037;28;20258;-70
2021/03/27 06:40:26;;;;;;;7.18;0.98;;;28.30;68.70;;;;;;5072040;28;20219;-69
2021/03/27 06:43:23;;;;;;;8.57;1.50;;;28.20;68.30;;;;;;5052126;28;20215;-69
2021/03/27 06:45:50;;;;;;;4.07;1.20;;;28.00;69.60;;;;;;5066170;28;20711;-70
2021/03/27 06:48:30;;;;;;;2.77;1.07;;;28.10;68.70;;;;;;5072010;28;20547;-69
2021/03/27 06:51:44;;;;;;;4.73;1.50;;;28.30;68.80;;;;;;5058563;28;20183;-70
2021/03/27 06:54:36;;;;;;;11.68;5.22;;;28.50;69.30;;;;;;5071373;28;20278;-72
2021/03/27 06:57:26;;;;;;;6.47;1.15;;;28.00;69.10;;;;;;5072218;28;20210;-71
2021/03/27 07:00:26;;;;;;;5.37;1.27;;;27.20;70.10;;;;;;5071468;28;20619;-71
2021/03/27 07:03:30;;;;;;;2.50;0.93;;;26.80;70.80;;;;;;5058865;28;20183;-70
2021/03/27 07:06:24;;;;;;;4.53;1.23;;;26.50;71.20;;;;;;5070687;28;20725;-72
2021/03/27 07:09:13;;;;;;;7.63;1.40;;;26.80;70.90;;;;;;5071771;28;20647;-68
2021/03/27 07:11:59;;;;;;;3.40;1.30;;;27.10;70.90;;;;;;5072198;28;20254;-70
2021/03/27 07:14:47;;;;;;;4.60;1.40;;;27.00;71.30;;;;;;5070005;28;20175;-71
2021/03/27 07:17:37;;;;;;;2.90;1.20;;;27.30;70.90;;;;;;5072189;28;20179;-69
2021/03/27 07:20:11;;;;;;;4.10;1.20;;;27.40;71.10;;;;;;5071607;28;20595;-68
2021/03/27 07:23:04;;;;;;;4.07;1.40;;;27.20;71.70;;;;;;5066902;28;20249;-71
2021/03/27 07:25:38;;;;;;;5.60;1.13;;;27.00;72.20;;;;;;5064257;28;20232;-70
2021/03/27 07:28:23;;;;;;;7.03;1.60;;;26.70;73.00;;;;;;5068845;28;20268;-71
2021/03/27 07:31:20;;;;;;;3.73;0.97;;;26.30;73.90;;;;;;5069679;28;20665;-73
2021/03/27 07:34:09;;;;;;;4.80;1.20;;;25.60;75.50;;;;;;5068454;28;20186;-71
2021/03/27 07:36:43;;;;;;;6.73;1.40;;;25.10;78.00;;;;;;5070843;28;20684;-71
2021/03/27 07:39:32;;;;;;;5.63;1.10;;;24.80;78.90;;;;;;5069404;28;20552;-71
2021/03/27 07:42:40;;;;;;;4.80;1.00;;;24.60;80.00;;;;;;5067364;28;20192;-70
2021/03/27 07:45:19;;;;;;;5.27;1.00;;;24.30;80.30;;;;;;5055553;28;20230;-71
2021/03/27 07:47:52;;;;;;;3.97;1.20;;;24.20;81.50;;;;;;5071508;28;20517;-71
2021/03/27 07:50:44;;;;;;;7.47;1.50;;;24.10;82.10;;;;;;5066467;28;20267;-71
2021/03/27 07:53:23;;;;;;;3.60;1.47;;;24.00;83.10;;;;;;5074799;28;20215;-71
2021/03/27 07:56:15;;;;;;;3.67;1.20;;;24.00;83.90;;;;;;5073800;28;20183;-72
2021/03/27 07:59:03;;;;;;;2.77;0.80;;;23.80;84.40;;;;;;5073214;28;20678;-70
2021/03/27 08:02:09;;;;;;;2.77;1.07;;;23.70;84.80;;;;;;5072572;28;20183;-68
2021/03/27 08:05:13;;;;;;;7.40;1.83;;;23.60;84.90;;;;;;5077316;28;20232;-71
2021/03/27 08:07:53;;;;;;;6.30;1.33;;;23.60;86.00;;;;;;5074854;28;20217;-71
2021/03/27 08:10:35;;;;;;;14.60;2.13;;;23.50;87.00;;;;;;5074548;28;20179;-70
2021/03/27 08:13:25;;;;;;;6.23;1.40;;;23.50;88.20;;;;;;5082220;28;20630;-71
2021/03/27 08:16:23;;;;;;;7.20;1.20;;;23.40;88.80;;;;;;5063983;28;20188;-71
2021/03/27 08:19:10;;;;;;;4.03;1.20;;;23.40;88.90;;;;;;5077816;28;20663;-68
2021/03/27 08:21:49;;;;;;;6.30;1.13;;;23.30;89.30;;;;;;5062447;28;20607;-69
2021/03/27 08:24:25;;;;;;;1.97;0.93;;;23.20;90.00;;;;;;5076065;28;20175;-72
2021/03/27 08:26:56;;;;;;;4.03;1.20;;;23.20;90.20;;;;;;5074500;28;20191;-71
2021/03/27 08:30:01;;;;;;;2.30;0.80;;;23.10;90.60;;;;;;5073782;28;20238;-72
2021/03/27 08:32:43;;;;;;;4.87;1.17;;;23.10;90.90;;;;;;5072386;28;20195;-72
2021/03/27 08:35:30;;;;;;;4.23;1.33;;;23.00;91.10;;;;;;5071863;28;20245;-71
2021/03/27 08:38:09;;;;;;;2.80;1.10;;;22.90;91.50;;;;;;5071768;28;20320;-71
2021/03/27 08:40:48;;;;;;;2.83;1.17;;;22.90;91.70;;;;;;5071311;28;20219;-71
2021/03/27 08:43:22;;;;;;;1.57;1.00;;;22.90;92.00;;;;;;5074390;28;20186;-71
2021/03/27 08:46:19;;;;;;;7.47;1.27;;;22.80;92.10;;;;;;5072102;28;20183;-69
2021/03/27 08:49:23;;;;;;;4.10;1.47;;;22.70;91.80;;;;;;5069412;28;20182;-71
2021/03/27 08:52:05;;;;;;;3.97;2.27;;;22.70;92.10;;;;;;5060389;28;20171;-72
2021/03/27 08:54:56;;;;;;;4.47;1.63;;;22.70;92.10;;;;;;5074145;28;20210;-71
2021/03/27 08:57:37;;;;;;;2.97;0.87;;;22.70;91.80;;;;;;5072669;28;20186;-69
2021/03/27 09:00:32;;;;;;;4.13;0.93;;;22.60;91.90;;;;;;5063432;28;20203;-70
2021/03/27 09:03:26;;;;;;;3.87;1.10;;;22.60;92.10;;;;;;5072902;28;20187;-71
2021/03/27 09:06:31;;;;;;;6.33;1.10;;;22.60;92.00;;;;;;5074136;28;20270;-69
2021/03/27 09:09:16;;;;;;;6.80;1.40;;;22.60;92.10;;;;;;4991595;28;20185;-71
2021/03/27 09:12:14;;;;;;;2.70;1.00;;;22.50;92.00;;;;;;5071353;28;20202;-68
2021/03/27 09:15:17;;;;;;;1.87;0.90;;;22.40;92.30;;;;;;5084675;28;20179;-69
2021/03/27 09:18:09;;;;;;;4.50;0.90;;;22.40;92.20;;;;;;5052100;28;20180;-71
2021/03/27 09:20:42;;;;;;;3.33;1.40;;;22.40;92.20;;;;;;5070423;28;20221;-72
2021/03/27 09:23:12;;;;;;;3.50;1.20;;;22.30;92.50;;;;;;5067540;28;20178;-71
2021/03/27 09:26:07;;;;;;;4.87;1.10;;;22.30;92.20;;;;;;5073705;28;20541;-69
2021/03/27 09:28:46;;;;;;;8.03;1.60;;;22.30;92.10;;;;;;5069385;28;20230;-70
2021/03/27 09:31:31;;;;;;;5.77;2.10;;;22.20;92.50;;;;;;5063913;28;20180;-71
2021/03/27 09:34:10;;;;;;;7.17;4.00;;;22.20;92.20;;;;;;5072786;28;20262;-71
2021/03/27 09:36:53;;;;;;;8.00;2.40;;;22.20;91.80;;;;;;5060147;28;20175;-68
2021/03/27 09:40:04;;;;;;;4.90;1.53;;;22.20;91.90;;;;;;5073210;28;20195;-70
2021/03/27 09:42:59;;;;;;;2.17;1.20;;;22.20;91.80;;;;;;5081152;28;20278;-70
2021/03/27 09:45:56;;;;;;;3.40;1.00;;;22.20;91.80;;;;;;5062386;28;20175;-70
2021/03/27 09:48:47;;;;;;;3.53;1.27;;;22.20;91.90;;;;;;5064275;28;20645;-69
2021/03/27 09:51:32;;;;;;;6.53;1.30;;;22.10;92.20;;;;;;5072796;28;20229;-70
2021/03/27 09:54:22;;;;;;;3.63;1.20;;;22.10;92.40;;;;;;5073093;28;20584;-69
2021/03/27 09:56:55;;;;;;;4.27;1.30;;;22.10;92.20;;;;;;5071460;28;20658;-70
2021/03/27 09:59:43;;;;;;;2.30;0.90;;;22.00;92.20;;;;;;5071715;28;20648;-69
2021/03/27 10:02:16;;;;;;;4.10;2.40;;;22.10;91.90;;;;;;5072278;28;20175;-71
2021/03/27 10:05:11;;;;;;;6.93;4.03;;;22.00;92.00;;;;;;5071233;28;20722;-71
2021/03/27 10:08:02;;;;;;;2.57;1.07;;;22.00;91.80;;;;;;5063829;28;20171;-70
2021/03/27 10:10:46;;;;;;;6.77;1.13;;;22.00;91.80;;;;;;5072731;28;20175;-69
2021/03/27 10:13:44;;;;;;;6.43;1.00;;;22.00;91.70;;;;;;5071819;28;20215;-68
2021/03/27 10:16:34;;;;;;;4.13;1.03;;;22.10;91.80;;;;;;5060569;28;20183;-70
2021/03/27 10:19:20;;;;;;;5.83;1.50;;;22.00;91.90;;;;;;5057210;28;20188;-66
2021/03/27 10:21:59;;;;;;;5.87;1.60;;;22.00;92.20;;;;;;5069977;28;20216;-70
2021/03/27 10:24:47;;;;;;;5.40;1.33;;;21.90;92.30;;;;;;5056541;28;20171;-67
2021/03/27 10:27:20;;;;;;;4.10;1.30;;;21.90;92.40;;;;;;5057878;28;20697;-69
2021/03/27 10:30:04;;;;;;;4.10;1.30;;;21.80;92.70;;;;;;5065527;28;20277;-69
2021/03/27 10:32:31;;;;;;;3.10;1.10;;;21.70;93.30;;;;;;5060031;28;20637;-69
2021/03/27 10:35:16;;;;;;;2.83;1.40;;;21.60;93.70;;;;;;5072079;28;20187;-70
2021/03/27 10:38:02;;;;;;;5.87;1.53;;;21.50;94.20;;;;;;5060588;28;20649;-70
2021/03/27 10:40:35;;;;;;;3.97;1.70;;;21.40;94.90;;;;;;5071592;28;20229;-68
2021/03/27 10:43:49;;;;;;;4.03;1.70;;;21.30;95.60;;;;;;5072331;28;20203;-70
2021/03/27 10:46:35;;;;;;;4.13;1.60;;;21.20;95.50;;;;;;5066756;28;20653;-69
2021/03/27 10:49:23;;;;;;;5.00;1.40;;;21.10;95.60;;;;;;5071348;28;20190;-70
2021/03/27 10:52:27;;;;;;;5.77;1.70;;;21.10;95.80;;;;;;5081676;28;20194;-66
2021/03/27 10:55:06;;;;;;;6.13;2.17;;;21.10;96.00;;;;;;5081127;28;20186;-66
2021/03/27 10:57:54;;;;;;;5.60;1.40;;;21.10;95.90;;;;;;5092724;28;20220;-70
2021/03/27 11:00:49;;;;;;;4.07;1.43;;;21.10;96.20;;;;;;5052187;28;20306;-71
2021/03/27 11:03:22;;;;;;;5.97;1.60;;;21.10;96.00;;;;;;5052618;28;20183;-71
2021/03/27 11:06:07;;;;;;;2.47;1.47;;;21.10;96.10;;;;;;5052612;28;20172;-68
2021/03/27 11:09:13;;;;;;;4.47;1.37;;;21.10;96.30;;;;;;5077479;28;20181;-68
2021/03/27 11:12:11;;;;;;;4.87;1.60;;;21.10;96.20;;;;;;5030200;28;20184;-68
2021/03/27 11:14:41;;;;;;;2.43;1.50;;;21.00;96.30;;;;;;5027178;28;20188;-68
2021/03/27 11:17:14;;;;;;;6.93;4.57;;;21.00;96.60;;;;;;5047647;28;20196;-70
2021/03/27 11:20:39;;;;;;;10.80;4.47;;;21.00;96.80;;;;;;5072364;28;20545;-69
2021/03/27 11:23:28;;;;;;;3.70;1.70;;;21.00;96.90;;;;;;5025159;28;20188;-67
2021/03/27 11:25:55;;;;;;;3.37;1.33;;;20.90;97.00;;;;;;5063984;28;20183;-68
2021/03/27 11:28:44;;;;;;;2.67;1.30;;;20.90;97.20;;;;;;5074621;28;20233;-68
2021/03/27 11:31:34;;;;;;;5.57;1.17;;;20.90;97.10;;;;;;5076032;28;20179;-68
2021/03/27 11:34:16;;;;;;;4.33;1.60;;;20.90;97.10;;;;;;5063293;28;20172;-68
2021/03/27 11:37:16;;;;;;;6.23;2.00;;;20.90;96.80;;;;;;5075718;28;20183;-69
2021/03/27 11:39:47;;;;;;;6.40;1.90;;;20.90;96.60;;;;;;5055360;28;20223;-65
2021/03/27 11:42:34;;;;;;;6.53;2.37;;;20.90;96.70;;;;;;5064173;28;20180;-70
2021/03/27 11:45:10;;;;;;;3.10;1.90;;;20.90;96.60;;;;;;5082103;28;20252;-70
2021/03/27 11:47:46;;;;;;;2.07;1.27;;;20.90;96.80;;;;;;5075313;28;20183;-70
2021/03/27 11:50:41;;;;;;;2.03;1.27;;;20.90;97.00;;;;;;5069132;28;20183;-70
2021/03/27 11:53:16;;;;;;;5.73;1.90;;;20.80;97.10;;;;;;5070700;28;20567;-71
2021/03/27 11:55:49;;;;;;;3.90;1.43;;;20.80;97.30;;;;;;5074604;28;20201;-67
2021/03/27 11:58:35;;;;;;;6.30;2.00;;;20.80;97.10;;;;;;5075290;28;20546;-68
2021/03/27 12:01:09;;;;;;;4.10;1.40;;;20.80;96.90;;;;;;5075437;28;20709;-68
2021/03/27 12:03:48;;;;;;;4.60;1.20;;;20.80;97.00;;;;;;5072975;28;20591;-67
2021/03/27 12:06:27;;;;;;;3.93;1.50;;;20.80;97.30;;;;;;5075033;28;20584;-69
2021/03/27 12:09:12;;;;;;;3.73;2.80;;;20.80;97.60;;;;;;5074835;28;20222;-69
2021/03/27 12:12:10;;;;;;;3.93;2.00;;;20.80;97.60;;;;;;5075150;28;20187;-69
2021/03/27 12:15:18;;;;;;;3.67;1.50;;;20.80;97.40;;;;;;5065176;28;20241;-69
2021/03/27 12:18:30;;;;;;;5.07;1.30;;;20.80;97.40;;;;;;5063074;28;20195;-70
2021/03/27 12:21:04;;;;;;;3.60;1.23;;;20.80;97.50;;;;;;5060497;28;20261;-70
2021/03/27 12:23:41;;;;;;;6.13;1.30;;;20.80;97.60;;;;;;5068955;28;20191;-71
2021/03/27 12:26:58;;;;;;;2.47;1.60;;;20.80;97.70;;;;;;5062782;28;20257;-65
2021/03/27 12:29:37;;;;;;;2.83;1.10;;;20.80;97.60;;;;;;5044717;28;20226;-67
2021/03/27 12:32:17;;;;;;;3.80;1.63;;;20.80;98.10;;;;;;5074363;28;20187;-67
2021/03/27 12:34:50;;;;;;;5.40;1.50;;;20.80;98.90;;;;;;5064066;28;20244;-68
2021/03/27 12:37:41;;;;;;;3.70;1.53;;;20.80;98.90;;;;;;5074013;28;20183;-70
2021/03/27 12:40:31;;;;;;;4.53;1.63;;;20.70;99.30;;;;;;5067613;28;20292;-68
2021/03/27 12:43:20;;;;;;;4.53;1.80;;;20.70;99.80;;;;;;5073903;28;20233;-68
2021/03/27 12:46:15;;;;;;;2.70;1.70;;;20.70;99.90;;;;;;5073289;28;20646;-71
2021/03/27 12:48:42;;;;;;;5.20;1.90;;;20.60;99.90;;;;;;5073860;28;20172;-70
2021/03/27 12:51:36;;;;;;;5.50;1.90;;;20.50;99.50;;;;;;5061361;28;20186;-71
2021/03/27 12:54:24;;;;;;;4.90;2.03;;;20.50;99.70;;;;;;5071466;28;20559;-71
2021/03/27 12:57:16;;;;;;;5.07;1.67;;;20.50;99.90;;;;;;5071392;28;20178;-72
2021/03/27 13:00:08;;;;;;;7.37;1.83;;;20.50;99.90;;;;;;5074207;28;20207;-71
2021/03/27 13:02:56;;;;;;;5.70;2.10;;;20.40;99.90;;;;;;5062997;28;20183;-72
2021/03/27 13:05:47;;;;;;;4.63;1.87;;;20.50;99.90;;;;;;5073782;28;20579;-72
2021/03/27 13:08:40;;;;;;;3.90;1.73;;;20.50;99.90;;;;;;5073681;28;20185;-72
2021/03/27 13:11:27;;;;;;;2.97;1.33;;;20.40;99.90;;;;;;5070361;28;20733;-68
2021/03/27 13:14:24;;;;;;;3.83;1.70;;;20.40;99.90;;;;;;5074095;28;20187;-73
2021/03/27 13:16:54;;;;;;;2.63;1.70;;;20.30;99.90;;;;;;5072742;28;20187;-69
2021/03/27 13:19:34;;;;;;;3.93;1.80;;;20.30;99.90;;;;;;5073292;28;20215;-68
2021/03/27 13:22:10;;;;;;;5.27;1.77;;;20.30;99.90;;;;;;5073414;28;20298;-71
2021/03/27 13:24:52;;;;;;;4.70;1.90;;;20.30;99.90;;;;;;5073265;28;20570;-69
2021/03/27 13:27:28;;;;;;;3.93;1.63;;;20.20;99.90;;;;;;5073361;28;20179;-68
2021/03/27 13:30:12;;;;;;;6.07;1.87;;;20.20;99.90;;;;;;5073792;28;20209;-70
2021/03/27 13:32:43;;;;;;;6.97;2.67;;;20.10;99.90;;;;;;5071414;28;20198;-69
2021/03/27 13:35:21;;;;;;;4.43;1.97;;;20.00;99.90;;;;;;5073103;28;20182;-69
2021/03/27 13:38:04;;;;;;;8.57;2.13;;;19.90;99.90;;;;;;5073389;28;20179;-70
2021/03/27 13:40:35;;;;;;;6.10;1.83;;;19.90;99.90;;;;;;5073040;28;20211;-71
2021/03/27 13:43:15;;;;;;;5.93;2.70;;;19.80;99.90;;;;;;5066341;28;20183;-70
2021/03/27 13:45:57;;;;;;;4.83;2.07;;;19.80;99.90;;;;;;5072982;28;20187;-67
2021/03/27 13:48:30;;;;;;;7.60;2.37;;;19.80;99.90;;;;;;5060354;28;20240;-69
2021/03/27 13:51:16;;;;;;;9.07;2.63;;;19.80;99.90;;;;;;5064829;28;20269;-69
2021/03/27 13:53:52;;;;;;;8.10;2.10;;;19.70;99.90;;;;;;5059461;28;20176;-68
2021/03/27 13:56:32;;;;;;;4.57;2.20;;;19.70;99.90;;;;;;5071797;28;20179;-69
2021/03/27 13:59:06;;;;;;;4.90;2.10;;;19.70;99.90;;;;;;5060660;28;20565;-71
2021/03/27 14:01:51;;;;;;;4.73;2.00;;;19.70;99.90;;;;;;5072633;28;20190;-71
2021/03/27 14:04:35;;;;;;;6.13;2.30;;;19.60;99.90;;;;;;5072728;28;20575;-71
2021/03/27 14:07:20;;;;;;;3.83;2.20;;;19.60;99.90;;;;;;5072648;28;20191;-71
2021/03/27 14:10:05;;;;;;;7.07;2.27;;;19.60;99.90;;;;;;5072565;28;20179;-71
2021/03/27 14:12:57;;;;;;;6.70;2.30;;;19.50;99.90;;;;;;5061973;28;20218;-68
2021/03/27 14:15:41;;;;;;;4.57;2.50;;;19.50;99.90;;;;;;5072853;28;20262;-72
2021/03/27 14:18:36;;;;;;;9.47;2.63;;;19.50;99.90;;;;;;5072706;28;20220;-71
2021/03/27 14:21:14;;;;;;;4.90;2.30;;;19.50;99.90;;;;;;5063082;28;20243;-71